sensor_id;sensor_type;location;lat;lon;timestamp;P1;durP1;ratioP1;P2;durP2;ratioP2
75285;SDS011;63879;46.064;14.532;2023-02-01T07:02:36;30.92;;;14.85;;
75285;SDS011;63879;46.064;14.532;2023-02-01T07:05:03;26.13;;;14.55;;
75285;SDS011;63879;46.064;14.532;2023-02-01T07:07:28;36.17;;;15.80;;
75285;SDS011;63879;46.064;14.532;2023-02-01T07:09:54;28.90;;;14.53;;
75285;SDS011;63879;46.064;14.532;2023-02-01T07:12:19;23.83;;;12.73;;
75285;SDS011;63879;46.064;14.532;2023-02-01T07:14:44;31.55;;;13.90;;
75285;SDS011;63879;46.064;14.532;2023-02-01T07:17:10;27.37;;;13.33;;
75285;SDS011;63879;46.064;14.532;2023-02-01T07:19:35;25.58;;;15.27;;
75285;SDS011;63879;46.064;14.532;2023-02-01T07:22:00;30.47;;;14.80;;
75285;SDS011;63879;46.064;14.532;2023-02-01T07:24:26;25.80;;;14.80;;
75285;SDS011;63879;46.064;14.532;2023-02-01T07:26:51;32.87;;;14.93;;
75285;SDS011;63879;46.064;14.532;2023-02-01T07:29:17;31.55;;;14.63;;
75285;SDS011;63879;46.064;14.532;2023-02-01T07:31:43;25.63;;;14.82;;
75285;SDS011;63879;46.064;14.532;2023-02-01T07:34:08;29.45;;;13.30;;
75285;SDS011;63879;46.064;14.532;2023-02-01T07:36:34;32.42;;;15.82;;
75285;SDS011;63879;46.064;14.532;2023-02-01T07:39:01;31.90;;;13.52;;
75285;SDS011;63879;46.064;14.532;2023-02-01T07:46:20;28.10;;;13.75;;
75285;SDS011;63879;46.064;14.532;2023-02-01T07:48:46;27.27;;;13.93;;
75285;SDS011;63879;46.064;14.532;2023-02-01T07:51:12;25.98;;;13.70;;
75285;SDS011;63879;46.064;14.532;2023-02-01T07:53:38;25.48;;;14.23;;
75285;SDS011;63879;46.064;14.532;2023-02-01T07:56:09;34.30;;;14.68;;
75285;SDS011;63879;46.064;14.532;2023-02-01T07:58:36;26.50;;;15.07;;
75285;SDS011;63879;46.064;14.532;2023-02-01T08:01:01;25.23;;;14.43;;
75285;SDS011;63879;46.064;14.532;2023-02-01T08:03:45;26.40;;;14.93;;
75285;SDS011;63879;46.064;14.532;2023-02-01T08:06:11;27.27;;;14.52;;
75285;SDS011;63879;46.064;14.532;2023-02-01T08:08:37;23.52;;;12.60;;
75285;SDS011;63879;46.064;14.532;2023-02-01T08:11:04;28.13;;;14.13;;
75285;SDS011;63879;46.064;14.532;2023-02-01T08:13:30;27.75;;;12.45;;
75285;SDS011;63879;46.064;14.532;2023-02-01T08:15:59;22.13;;;12.07;;
75285;SDS011;63879;46.064;14.532;2023-02-01T08:18:25;21.40;;;11.57;;
75285;SDS011;63879;46.064;14.532;2023-02-01T08:20:51;19.35;;;9.77;;
75285;SDS011;63879;46.064;14.532;2023-02-01T08:23:16;21.90;;;11.38;;
75285;SDS011;63879;46.064;14.532;2023-02-01T08:25:42;20.42;;;11.52;;
75285;SDS011;63879;46.064;14.532;2023-02-01T08:28:08;21.70;;;10.15;;
75285;SDS011;63879;46.064;14.532;2023-02-01T08:30:35;18.92;;;9.57;;
75285;SDS011;63879;46.064;14.532;2023-02-01T08:33:02;19.77;;;10.20;;
75285;SDS011;63879;46.064;14.532;2023-02-01T08:35:27;21.38;;;11.40;;
75285;SDS011;63879;46.064;14.532;2023-02-01T08:37:52;22.17;;;10.90;;
75285;SDS011;63879;46.064;14.532;2023-02-01T08:40:18;26.20;;;11.88;;
75285;SDS011;63879;46.064;14.532;2023-02-01T08:42:44;20.10;;;11.30;;
75285;SDS011;63879;46.064;14.532;2023-02-01T08:45:22;23.52;;;12.38;;
75285;SDS011;63879;46.064;14.532;2023-02-01T08:47:52;23.83;;;10.57;;
75285;SDS011;63879;46.064;14.532;2023-02-01T08:50:17;20.13;;;11.15;;
75285;SDS011;63879;46.064;14.532;2023-02-01T08:52:44;23.40;;;10.23;;
75285;SDS011;63879;46.064;14.532;2023-02-01T08:55:09;21.73;;;10.45;;
75285;SDS011;63879;46.064;14.532;2023-02-01T08:57:35;19.17;;;11.63;;
75285;SDS011;63879;46.064;14.532;2023-02-01T09:00:00;19.27;;;10.35;;
75285;SDS011;63879;46.064;14.532;2023-02-01T09:02:26;20.60;;;10.38;;
75285;SDS011;63879;46.064;14.532;2023-02-01T09:04:51;17.48;;;10.15;;
75285;SDS011;63879;46.064;14.532;2023-02-01T09:07:17;18.40;;;10.03;;
75285;SDS011;63879;46.064;14.532;2023-02-01T09:09:43;18.20;;;10.05;;
75285;SDS011;63879;46.064;14.532;2023-02-01T09:12:09;18.63;;;10.35;;
75285;SDS011;63879;46.064;14.532;2023-02-01T09:14:34;15.05;;;9.15;;
75285;SDS011;63879;46.064;14.532;2023-02-01T09:17:00;18.02;;;9.60;;
75285;SDS011;63879;46.064;14.532;2023-02-01T09:19:25;22.57;;;11.57;;
75285;SDS011;63879;46.064;14.532;2023-02-01T09:21:50;18.70;;;10.77;;
75285;SDS011;63879;46.064;14.532;2023-02-01T09:24:16;16.00;;;9.98;;
75285;SDS011;63879;46.064;14.532;2023-02-01T09:26:41;20.33;;;10.30;;
75285;SDS011;63879;46.064;14.532;2023-02-01T09:29:07;18.33;;;9.48;;
75285;SDS011;63879;46.064;14.532;2023-02-01T09:31:35;17.85;;;9.85;;
75285;SDS011;63879;46.064;14.532;2023-02-01T09:34:01;15.77;;;9.70;;
75285;SDS011;63879;46.064;14.532;2023-02-01T09:36:26;18.20;;;8.50;;
75285;SDS011;63879;46.064;14.532;2023-02-01T09:38:52;17.38;;;9.13;;
75285;SDS011;63879;46.064;14.532;2023-02-01T09:41:31;17.73;;;9.02;;
75285;SDS011;63879;46.064;14.532;2023-02-01T09:47:21;14.30;;;8.82;;
75285;SDS011;63879;46.064;14.532;2023-02-01T09:52:18;18.92;;;9.38;;
75285;SDS011;63879;46.064;14.532;2023-02-01T09:54:50;16.15;;;8.85;;
75285;SDS011;63879;46.064;14.532;2023-02-01T09:57:24;13.52;;;8.80;;
75285;SDS011;63879;46.064;14.532;2023-02-01T09:59:57;17.83;;;8.35;;
75285;SDS011;63879;46.064;14.532;2023-02-01T10:02:27;17.60;;;8.68;;
75285;SDS011;63879;46.064;14.532;2023-02-01T10:04:54;14.60;;;8.07;;
75285;SDS011;63879;46.064;14.532;2023-02-01T10:15:02;16.93;;;8.67;;
75285;SDS011;63879;46.064;14.532;2023-02-01T10:17:47;15.77;;;9.48;;
75285;SDS011;63879;46.064;14.532;2023-02-01T10:20:31;14.18;;;8.38;;
75285;SDS011;63879;46.064;14.532;2023-02-01T10:23:09;16.77;;;10.13;;
75285;SDS011;63879;46.064;14.532;2023-02-01T10:25:44;13.63;;;7.47;;
75285;SDS011;63879;46.064;14.532;2023-02-01T10:28:18;16.10;;;7.93;;
75285;SDS011;63879;46.064;14.532;2023-02-01T10:30:46;16.17;;;8.43;;
75285;SDS011;63879;46.064;14.532;2023-02-01T10:33:15;14.07;;;8.38;;
75285;SDS011;63879;46.064;14.532;2023-02-01T10:35:45;14.23;;;8.30;;
75285;SDS011;63879;46.064;14.532;2023-02-01T10:38:20;15.68;;;8.25;;
75285;SDS011;63879;46.064;14.532;2023-02-01T10:40:51;14.80;;;9.05;;
75285;SDS011;63879;46.064;14.532;2023-02-01T10:43:17;16.98;;;8.82;;
75285;SDS011;63879;46.064;14.532;2023-02-01T10:45:42;17.70;;;8.63;;
75285;SDS011;63879;46.064;14.532;2023-02-01T10:48:08;16.58;;;9.32;;
75285;SDS011;63879;46.064;14.532;2023-02-01T10:50:38;17.55;;;8.07;;
75285;SDS011;63879;46.064;14.532;2023-02-01T10:53:20;14.13;;;9.15;;
75285;SDS011;63879;46.064;14.532;2023-02-01T10:55:49;21.48;;;9.02;;
75285;SDS011;63879;46.064;14.532;2023-02-01T10:58:28;21.02;;;9.70;;
75285;SDS011;63879;46.064;14.532;2023-02-01T11:03:41;20.15;;;9.85;;
75285;SDS011;63879;46.064;14.532;2023-02-01T11:06:27;19.05;;;10.07;;
75285;SDS011;63879;46.064;14.532;2023-02-01T11:08:56;19.60;;;11.93;;
75285;SDS011;63879;46.064;14.532;2023-02-01T11:11:23;17.50;;;10.77;;
75285;SDS011;63879;46.064;14.532;2023-02-01T11:13:53;20.55;;;11.55;;
75285;SDS011;63879;46.064;14.532;2023-02-01T11:16:21;19.38;;;11.30;;
75285;SDS011;63879;46.064;14.532;2023-02-01T11:21:20;19.10;;;10.80;;
75285;SDS011;63879;46.064;14.532;2023-02-01T11:23:46;20.17;;;11.60;;
75285;SDS011;63879;46.064;14.532;2023-02-01T11:26:22;22.40;;;11.32;;
75285;SDS011;63879;46.064;14.532;2023-02-01T11:29:33;22.90;;;12.25;;
75285;SDS011;63879;46.064;14.532;2023-02-01T11:31:42;21.42;;;12.13;;
75285;SDS011;63879;46.064;14.532;2023-02-01T11:34:18;20.05;;;12.60;;
75285;SDS011;63879;46.064;14.532;2023-02-01T11:36:47;18.55;;;9.65;;
75285;SDS011;63879;46.064;14.532;2023-02-01T11:44:34;17.58;;;10.98;;
75285;SDS011;63879;46.064;14.532;2023-02-01T11:49:56;20.65;;;10.90;;
75285;SDS011;63879;46.064;14.532;2023-02-01T11:55:36;18.20;;;10.13;;
75285;SDS011;63879;46.064;14.532;2023-02-01T11:58:22;21.50;;;11.43;;
75285;SDS011;63879;46.064;14.532;2023-02-01T12:06:35;23.45;;;13.75;;
75285;SDS011;63879;46.064;14.532;2023-02-01T12:11:43;26.90;;;16.38;;
75285;SDS011;63879;46.064;14.532;2023-02-01T12:20:52;32.83;;;18.73;;
75285;SDS011;63879;46.064;14.532;2023-02-01T12:34:38;29.05;;;17.88;;
75285;SDS011;63879;46.064;14.532;2023-02-01T12:38:12;29.25;;;17.23;;
75285;SDS011;63879;46.064;14.532;2023-02-01T12:43:21;31.55;;;18.88;;
75285;SDS011;63879;46.064;14.532;2023-02-01T12:45:55;28.73;;;16.77;;
75285;SDS011;63879;46.064;14.532;2023-02-01T12:48:34;28.33;;;17.45;;
75285;SDS011;63879;46.064;14.532;2023-02-01T12:51:27;27.30;;;16.48;;
75285;SDS011;63879;46.064;14.532;2023-02-01T12:53:56;26.95;;;16.55;;
75285;SDS011;63879;46.064;14.532;2023-02-01T12:59:24;26.42;;;16.35;;
75285;SDS011;63879;46.064;14.532;2023-02-01T13:01:56;27.52;;;17.48;;
75285;SDS011;63879;46.064;14.532;2023-02-01T13:04:30;26.23;;;16.90;;
75285;SDS011;63879;46.064;14.532;2023-02-01T13:12:55;27.90;;;15.70;;
75285;SDS011;63879;46.064;14.532;2023-02-01T13:15:57;27.38;;;16.80;;
75285;SDS011;63879;46.064;14.532;2023-02-01T13:18:24;26.95;;;16.90;;
75285;SDS011;63879;46.064;14.532;2023-02-01T13:20:56;27.23;;;17.42;;
75285;SDS011;63879;46.064;14.532;2023-02-01T13:23:30;26.70;;;18.40;;
75285;SDS011;63879;46.064;14.532;2023-02-01T13:25:57;27.23;;;15.85;;
75285;SDS011;63879;46.064;14.532;2023-02-01T13:29:23;26.23;;;16.85;;
75285;SDS011;63879;46.064;14.532;2023-02-01T13:34:04;24.45;;;14.07;;
75285;SDS011;63879;46.064;14.532;2023-02-01T13:39:54;23.83;;;16.17;;
75285;SDS011;63879;46.064;14.532;2023-02-01T13:45:14;26.60;;;15.65;;
75285;SDS011;63879;46.064;14.532;2023-02-01T13:47:43;26.90;;;17.02;;
75285;SDS011;63879;46.064;14.532;2023-02-01T13:52:38;27.98;;;15.98;;
75285;SDS011;63879;46.064;14.532;2023-02-01T13:57:46;24.48;;;15.15;;
75285;SDS011;63879;46.064;14.532;2023-02-01T14:24:01;24.30;;;12.70;;
75285;SDS011;63879;46.064;14.532;2023-02-01T14:37:08;23.95;;;13.52;;
75285;SDS011;63879;46.064;14.532;2023-02-01T14:42:20;25.77;;;13.77;;
75285;SDS011;63879;46.064;14.532;2023-02-01T14:44:53;23.52;;;14.93;;
75285;SDS011;63879;46.064;14.532;2023-02-01T14:52:33;25.85;;;15.10;;
75285;SDS011;63879;46.064;14.532;2023-02-01T14:55:15;26.45;;;15.07;;
75285;SDS011;63879;46.064;14.532;2023-02-01T14:57:44;25.63;;;12.88;;
75285;SDS011;63879;46.064;14.532;2023-02-01T15:02:40;29.92;;;16.45;;
75285;SDS011;63879;46.064;14.532;2023-02-01T15:05:16;26.33;;;14.93;;
75285;SDS011;63879;46.064;14.532;2023-02-01T15:07:48;31.15;;;16.65;;
75285;SDS011;63879;46.064;14.532;2023-02-01T15:10:13;32.45;;;17.13;;
75285;SDS011;63879;46.064;14.532;2023-02-01T15:12:40;30.57;;;17.10;;
75285;SDS011;63879;46.064;14.532;2023-02-01T15:15:13;29.45;;;15.50;;
75285;SDS011;63879;46.064;14.532;2023-02-01T15:17:39;28.65;;;15.23;;
75285;SDS011;63879;46.064;14.532;2023-02-01T15:20:21;19.38;;;9.77;;
75285;SDS011;63879;46.064;14.532;2023-02-01T15:22:57;20.77;;;11.00;;
75285;SDS011;63879;46.064;14.532;2023-02-01T15:25:28;19.70;;;11.25;;
75285;SDS011;63879;46.064;14.532;2023-02-01T15:27:56;18.92;;;11.02;;
75285;SDS011;63879;46.064;14.532;2023-02-01T15:30:23;17.77;;;10.38;;
75285;SDS011;63879;46.064;14.532;2023-02-01T15:32:51;19.77;;;10.32;;
75285;SDS011;63879;46.064;14.532;2023-02-01T15:35:31;20.30;;;11.13;;
75285;SDS011;63879;46.064;14.532;2023-02-01T15:43:29;23.20;;;12.32;;
75285;SDS011;63879;46.064;14.532;2023-02-01T15:45:56;19.30;;;11.07;;
75285;SDS011;63879;46.064;14.532;2023-02-01T15:48:23;21.25;;;12.30;;
75285;SDS011;63879;46.064;14.532;2023-02-01T15:50:50;21.20;;;12.27;;
75285;SDS011;63879;46.064;14.532;2023-02-01T15:53:21;22.45;;;12.90;;
75285;SDS011;63879;46.064;14.532;2023-02-01T15:55:51;25.77;;;12.20;;
75285;SDS011;63879;46.064;14.532;2023-02-01T15:58:21;22.42;;;10.90;;
75285;SDS011;63879;46.064;14.532;2023-02-01T16:00:52;21.30;;;11.75;;
75285;SDS011;63879;46.064;14.532;2023-02-01T16:03:27;22.85;;;11.90;;
75285;SDS011;63879;46.064;14.532;2023-02-01T16:06:08;25.52;;;15.45;;
75285;SDS011;63879;46.064;14.532;2023-02-01T16:08:53;29.52;;;14.63;;
75285;SDS011;63879;46.064;14.532;2023-02-01T16:11:24;29.40;;;15.43;;
75285;SDS011;63879;46.064;14.532;2023-02-01T16:13:55;32.00;;;16.10;;
75285;SDS011;63879;46.064;14.532;2023-02-01T16:16:24;27.02;;;14.88;;
75285;SDS011;63879;46.064;14.532;2023-02-01T16:18:50;29.15;;;15.02;;
75285;SDS011;63879;46.064;14.532;2023-02-01T16:21:16;28.83;;;16.93;;
75285;SDS011;63879;46.064;14.532;2023-02-01T16:23:41;26.52;;;15.88;;
75285;SDS011;63879;46.064;14.532;2023-02-01T16:26:06;29.30;;;19.20;;
75285;SDS011;63879;46.064;14.532;2023-02-01T16:28:32;31.50;;;18.70;;
75285;SDS011;63879;46.064;14.532;2023-02-01T16:30:58;28.30;;;16.40;;
75285;SDS011;63879;46.064;14.532;2023-02-01T16:33:24;31.67;;;16.40;;
75285;SDS011;63879;46.064;14.532;2023-02-01T16:35:50;26.85;;;16.83;;
75285;SDS011;63879;46.064;14.532;2023-02-01T16:38:16;31.65;;;17.77;;
75285;SDS011;63879;46.064;14.532;2023-02-01T16:40:46;34.80;;;19.38;;
75285;SDS011;63879;46.064;14.532;2023-02-01T16:43:14;35.80;;;19.55;;
75285;SDS011;63879;46.064;14.532;2023-02-01T16:45:41;38.72;;;22.15;;
75285;SDS011;63879;46.064;14.532;2023-02-01T16:48:09;37.38;;;18.77;;
75285;SDS011;63879;46.064;14.532;2023-02-01T16:50:54;38.20;;;21.20;;
75285;SDS011;63879;46.064;14.532;2023-02-01T16:53:22;38.65;;;18.80;;
75285;SDS011;63879;46.064;14.532;2023-02-01T16:55:48;32.97;;;19.70;;
75285;SDS011;63879;46.064;14.532;2023-02-01T16:58:15;40.95;;;20.13;;
75285;SDS011;63879;46.064;14.532;2023-02-01T17:00:41;36.25;;;19.45;;
75285;SDS011;63879;46.064;14.532;2023-02-01T17:03:07;31.77;;;19.10;;
75285;SDS011;63879;46.064;14.532;2023-02-01T17:05:32;34.58;;;17.85;;
75285;SDS011;63879;46.064;14.532;2023-02-01T17:07:59;32.42;;;17.55;;
75285;SDS011;63879;46.064;14.532;2023-02-01T17:10:29;36.50;;;19.15;;
75285;SDS011;63879;46.064;14.532;2023-02-01T17:12:55;35.92;;;18.20;;
75285;SDS011;63879;46.064;14.532;2023-02-01T17:15:21;32.25;;;18.35;;
75285;SDS011;63879;46.064;14.532;2023-02-01T17:17:47;34.80;;;18.33;;
75285;SDS011;63879;46.064;14.532;2023-02-01T17:20:23;32.45;;;16.95;;
75285;SDS011;63879;46.064;14.532;2023-02-01T17:22:49;31.00;;;16.52;;
75285;SDS011;63879;46.064;14.532;2023-02-01T17:25:16;32.72;;;17.73;;
75285;SDS011;63879;46.064;14.532;2023-02-01T17:27:42;38.25;;;18.27;;
75285;SDS011;63879;46.064;14.532;2023-02-01T17:30:09;30.90;;;16.92;;
75285;SDS011;63879;46.064;14.532;2023-02-01T17:32:35;29.73;;;16.25;;
75285;SDS011;63879;46.064;14.532;2023-02-01T17:35:01;35.40;;;17.35;;
75285;SDS011;63879;46.064;14.532;2023-02-01T17:37:27;36.60;;;18.93;;
75285;SDS011;63879;46.064;14.532;2023-02-01T17:39:54;30.55;;;18.27;;
75285;SDS011;63879;46.064;14.532;2023-02-01T17:42:20;36.25;;;17.88;;
75285;SDS011;63879;46.064;14.532;2023-02-01T17:44:46;33.65;;;18.33;;
75285;SDS011;63879;46.064;14.532;2023-02-01T17:47:11;34.50;;;19.27;;
75285;SDS011;63879;46.064;14.532;2023-02-01T17:49:36;34.87;;;18.73;;
75285;SDS011;63879;46.064;14.532;2023-02-01T17:52:03;32.05;;;18.27;;
75285;SDS011;63879;46.064;14.532;2023-02-01T17:54:29;33.28;;;17.67;;
75285;SDS011;63879;46.064;14.532;2023-02-01T17:56:54;34.33;;;18.97;;
75285;SDS011;63879;46.064;14.532;2023-02-01T17:59:20;31.70;;;18.08;;
75285;SDS011;63879;46.064;14.532;2023-02-01T18:01:45;30.77;;;17.87;;
75285;SDS011;63879;46.064;14.532;2023-02-01T18:04:12;30.77;;;17.23;;
75285;SDS011;63879;46.064;14.532;2023-02-01T18:06:40;36.08;;;18.05;;
75285;SDS011;63879;46.064;14.532;2023-02-01T18:09:05;36.92;;;21.27;;
75285;SDS011;63879;46.064;14.532;2023-02-01T18:11:31;41.53;;;22.20;;
75285;SDS011;63879;46.064;14.532;2023-02-01T18:13:57;48.25;;;26.52;;
75285;SDS011;63879;46.064;14.532;2023-02-01T18:16:28;48.50;;;25.63;;
75285;SDS011;63879;46.064;14.532;2023-02-01T18:18:55;44.05;;;24.83;;
75285;SDS011;63879;46.064;14.532;2023-02-01T18:21:28;45.13;;;24.02;;
75285;SDS011;63879;46.064;14.532;2023-02-01T18:24:13;46.67;;;23.65;;
75285;SDS011;63879;46.064;14.532;2023-02-01T18:26:39;44.67;;;22.67;;
75285;SDS011;63879;46.064;14.532;2023-02-01T18:29:05;52.05;;;25.33;;
75285;SDS011;63879;46.064;14.532;2023-02-01T18:31:31;50.63;;;24.75;;
75285;SDS011;63879;46.064;14.532;2023-02-01T18:33:57;44.40;;;22.60;;
75285;SDS011;63879;46.064;14.532;2023-02-01T18:36:23;42.53;;;22.50;;
75285;SDS011;63879;46.064;14.532;2023-02-01T18:38:49;38.13;;;23.42;;
75285;SDS011;63879;46.064;14.532;2023-02-01T18:41:16;46.70;;;24.25;;
75285;SDS011;63879;46.064;14.532;2023-02-01T18:43:44;43.35;;;23.25;;
75285;SDS011;63879;46.064;14.532;2023-02-01T18:46:10;50.45;;;20.77;;
75285;SDS011;63879;46.064;14.532;2023-02-01T18:48:39;44.13;;;23.45;;
75285;SDS011;63879;46.064;14.532;2023-02-01T18:51:05;43.15;;;23.77;;
75285;SDS011;63879;46.064;14.532;2023-02-01T18:53:34;44.72;;;24.05;;
75285;SDS011;63879;46.064;14.532;2023-02-01T18:55:59;45.37;;;21.27;;
75285;SDS011;63879;46.064;14.532;2023-02-01T18:58:27;38.25;;;22.55;;
75285;SDS011;63879;46.064;14.532;2023-02-01T19:00:53;50.10;;;25.63;;
75285;SDS011;63879;46.064;14.532;2023-02-01T19:03:19;45.20;;;23.35;;
75285;SDS011;63879;46.064;14.532;2023-02-01T19:05:46;49.65;;;24.08;;
75285;SDS011;63879;46.064;14.532;2023-02-01T19:08:13;46.25;;;23.42;;
75285;SDS011;63879;46.064;14.532;2023-02-01T19:10:42;53.28;;;25.35;;
75285;SDS011;63879;46.064;14.532;2023-02-01T19:13:08;46.10;;;23.05;;
75285;SDS011;63879;46.064;14.532;2023-02-01T19:15:37;43.95;;;23.25;;
75285;SDS011;63879;46.064;14.532;2023-02-01T19:18:05;46.03;;;24.23;;
75285;SDS011;63879;46.064;14.532;2023-02-01T19:20:31;45.00;;;25.50;;
75285;SDS011;63879;46.064;14.532;2023-02-01T19:22:56;49.90;;;25.42;;
75285;SDS011;63879;46.064;14.532;2023-02-01T19:25:23;57.30;;;28.13;;
75285;SDS011;63879;46.064;14.532;2023-02-01T19:27:50;64.93;;;30.35;;
75285;SDS011;63879;46.064;14.532;2023-02-01T19:30:17;210.18;;;84.90;;
75285;SDS011;63879;46.064;14.532;2023-02-01T19:32:43;168.00;;;67.97;;
75285;SDS011;63879;46.064;14.532;2023-02-01T19:35:10;118.50;;;49.88;;
75285;SDS011;63879;46.064;14.532;2023-02-01T19:37:37;94.10;;;45.42;;
75285;SDS011;63879;46.064;14.532;2023-02-01T19:42:31;73.28;;;36.30;;
75285;SDS011;63879;46.064;14.532;2023-02-01T19:44:57;60.10;;;30.30;;
75285;SDS011;63879;46.064;14.532;2023-02-01T19:47:22;58.07;;;31.40;;
75285;SDS011;63879;46.064;14.532;2023-02-01T19:49:47;55.72;;;26.67;;
75285;SDS011;63879;46.064;14.532;2023-02-01T19:52:13;53.23;;;27.33;;
75285;SDS011;63879;46.064;14.532;2023-02-01T19:54:38;43.90;;;25.87;;
75285;SDS011;63879;46.064;14.532;2023-02-01T19:57:03;52.93;;;28.50;;
75285;SDS011;63879;46.064;14.532;2023-02-01T19:59:29;50.50;;;22.50;;
75285;SDS011;63879;46.064;14.532;2023-02-01T20:01:54;52.95;;;25.40;;
75285;SDS011;63879;46.064;14.532;2023-02-01T20:04:20;51.83;;;25.60;;
75285;SDS011;63879;46.064;14.532;2023-02-01T20:06:46;55.03;;;27.98;;
75285;SDS011;63879;46.064;14.532;2023-02-01T20:09:21;57.58;;;27.60;;
75285;SDS011;63879;46.064;14.532;2023-02-01T20:11:48;51.35;;;25.52;;
75285;SDS011;63879;46.064;14.532;2023-02-01T20:14:14;46.80;;;25.80;;
75285;SDS011;63879;46.064;14.532;2023-02-01T20:16:40;52.65;;;24.13;;
75285;SDS011;63879;46.064;14.532;2023-02-01T20:19:06;47.65;;;26.17;;
75285;SDS011;63879;46.064;14.532;2023-02-01T20:21:34;46.53;;;24.42;;
75285;SDS011;63879;46.064;14.532;2023-02-01T20:24:00;49.47;;;25.45;;
75285;SDS011;63879;46.064;14.532;2023-02-01T20:26:25;50.63;;;26.27;;
75285;SDS011;63879;46.064;14.532;2023-02-01T20:28:51;48.47;;;25.67;;
75285;SDS011;63879;46.064;14.532;2023-02-01T20:31:16;50.38;;;27.48;;
75285;SDS011;63879;46.064;14.532;2023-02-01T20:33:42;48.55;;;25.75;;
75285;SDS011;63879;46.064;14.532;2023-02-01T20:36:07;47.77;;;26.90;;
75285;SDS011;63879;46.064;14.532;2023-02-01T20:38:33;54.92;;;28.83;;
75285;SDS011;63879;46.064;14.532;2023-02-01T20:41:02;49.75;;;26.42;;
75285;SDS011;63879;46.064;14.532;2023-02-01T20:43:29;50.38;;;26.90;;
75285;SDS011;63879;46.064;14.532;2023-02-01T20:45:54;51.13;;;25.92;;
75285;SDS011;63879;46.064;14.532;2023-02-01T20:48:20;51.43;;;26.57;;
75285;SDS011;63879;46.064;14.532;2023-02-01T20:50:45;42.72;;;24.50;;
75285;SDS011;63879;46.064;14.532;2023-02-01T20:53:10;47.45;;;25.30;;
75285;SDS011;63879;46.064;14.532;2023-02-01T20:55:36;48.30;;;25.77;;
75285;SDS011;63879;46.064;14.532;2023-02-01T20:58:01;47.67;;;27.30;;
75285;SDS011;63879;46.064;14.532;2023-02-01T21:00:26;52.00;;;26.03;;
75285;SDS011;63879;46.064;14.532;2023-02-01T21:02:52;45.87;;;25.50;;
75285;SDS011;63879;46.064;14.532;2023-02-01T21:05:17;45.75;;;25.63;;
75285;SDS011;63879;46.064;14.532;2023-02-01T21:07:43;57.90;;;29.97;;
75285;SDS011;63879;46.064;14.532;2023-02-01T21:10:08;51.55;;;27.50;;
75285;SDS011;63879;46.064;14.532;2023-02-01T21:12:35;49.28;;;25.80;;
75285;SDS011;63879;46.064;14.532;2023-02-01T21:15:00;48.25;;;25.13;;
75285;SDS011;63879;46.064;14.532;2023-02-01T21:17:25;51.20;;;26.23;;
75285;SDS011;63879;46.064;14.532;2023-02-01T21:22:19;52.83;;;27.23;;
75285;SDS011;63879;46.064;14.532;2023-02-01T21:24:48;50.25;;;27.33;;
75285;SDS011;63879;46.064;14.532;2023-02-01T21:27:13;50.97;;;24.70;;
75285;SDS011;63879;46.064;14.532;2023-02-01T21:29:39;49.42;;;26.40;;
75285;SDS011;63879;46.064;14.532;2023-02-01T21:32:04;45.00;;;24.55;;
75285;SDS011;63879;46.064;14.532;2023-02-01T21:34:31;48.30;;;27.60;;
75285;SDS011;63879;46.064;14.532;2023-02-01T21:36:57;45.80;;;26.05;;
75285;SDS011;63879;46.064;14.532;2023-02-01T21:39:22;53.43;;;28.07;;
75285;SDS011;63879;46.064;14.532;2023-02-01T21:41:48;48.85;;;26.25;;
75285;SDS011;63879;46.064;14.532;2023-02-01T21:44:31;50.25;;;25.80;;
75285;SDS011;63879;46.064;14.532;2023-02-01T21:46:57;52.60;;;27.35;;
75285;SDS011;63879;46.064;14.532;2023-02-01T21:49:22;48.23;;;24.33;;
75285;SDS011;63879;46.064;14.532;2023-02-01T21:51:50;49.90;;;26.45;;
75285;SDS011;63879;46.064;14.532;2023-02-01T21:54:15;48.90;;;28.73;;
75285;SDS011;63879;46.064;14.532;2023-02-01T21:56:41;52.75;;;27.98;;
75285;SDS011;63879;46.064;14.532;2023-02-01T21:59:07;50.58;;;26.88;;
